Ust'- Isim, Russia
Current Conditions -  °F | °C
As of 10:30 AM on Monday 20 Oct 2014 (Local Time) from UNOO Reporting Station
Broken Clouds Broken Clouds  
Wind Chill: 27°   Ceiling: 900
Heat Index: 34°   Visibility: 4mi
Dew Point: 32°   Wind: 9mph
Humidity: 93%   Direction: 280°W
Pressure: 29.56"   Gusts: NA
Location:  57.68°N, 71.18°E
Report Text: UNOO 200430Z 28004MPS 6000 BKN009 01/M00 Q1001 25190060 NOSIGRMK OBST PT OBSC QFE743
Loading
Personal Weather Stations






























Interactive Weather Map
Tropical Storm Tracking
New forecast layout! Learn more

10-Day Weather Forecast

Advertisements
Track Severe Weather on mobile